Time;durP1;ratioP1;P1;durP2;ratioP2;P2;SDS_P1;SDS_P2;PMS_P1;PMS_P2;Temp;Humidity;BMP_temperature;BMP_pressure;BME280_temperature;BME280_humidity;BME280_pressure;Samples;Min_cycle;Max_cycle;Signal;HPM_P1;HPM_P2
2022/01/23 00:00:36;;;;;;;17.70;11.57;;;;;;;3.61;99.09;97076.50;5033560;28;20733;-84
2022/01/23 00:03:08;;;;;;;20.33;12.80;;;;;;;3.54;99.76;97080.34;5017223;28;20222;-84
2022/01/23 00:05:38;;;;;;;18.97;12.53;;;;;;;3.64;99.08;97076.31;5019614;28;20244;-84
2022/01/23 00:08:06;;;;;;;19.77;13.10;;;;;;;3.63;98.73;97086.59;5027873;28;20220;-84
2022/01/23 00:10:34;;;;;;;19.60;12.67;;;;;;;3.59;99.25;97085.97;5051245;28;20221;-83
2022/01/23 00:13:09;;;;;;;22.30;13.60;;;;;;;3.56;99.60;97087.88;5056824;28;20217;-84
2022/01/23 00:18:20;;;;;;;18.67;12.13;;;;;;;3.60;98.97;97079.16;5045835;28;20209;-84
2022/01/23 00:20:47;;;;;;;19.70;12.57;;;;;;;3.68;98.53;97074.38;5057489;28;20677;-83
2022/01/23 00:23:26;;;;;;;18.17;12.57;;;;;;;3.66;98.55;97077.00;5057692;28;20252;-84
2022/01/23 00:31:23;;;;;;;18.80;12.80;;;;;;;3.71;98.02;97077.53;5056917;28;20319;-83
2022/01/23 00:33:51;;;;;;;18.30;12.20;;;;;;;3.74;97.66;97079.09;5057440;28;20279;-84
2022/01/23 00:36:18;;;;;;;19.53;12.30;;;;;;;3.71;97.54;97067.34;5057839;28;20252;-83
2022/01/23 00:38:44;;;;;;;18.80;12.20;;;;;;;3.75;97.69;97075.63;5056646;28;20229;-83
2022/01/23 00:41:12;;;;;;;20.80;13.17;;;;;;;3.78;97.33;97073.69;5056824;28;20255;-83
2022/01/23 00:43:42;;;;;;;18.63;12.50;;;;;;;3.77;96.99;97078.88;5056605;28;20225;-84
2022/01/23 00:46:21;;;;;;;21.50;13.60;;;;;;;3.75;97.20;97088.34;5057385;28;20190;-84
2022/01/23 00:48:51;;;;;;;18.90;13.10;;;;;;;3.74;97.57;97079.09;5056282;28;20256;-84
2022/01/23 00:51:18;;;;;;;21.00;12.90;;;;;;;3.70;97.50;97082.72;5056454;28;20201;-84
2022/01/23 00:53:44;;;;;;;18.53;13.13;;;;;;;3.71;97.25;97082.63;5056215;28;20225;-84
2022/01/23 00:56:12;;;;;;;17.83;12.67;;;;;;;3.72;97.52;97076.63;5055156;28;20221;-83
2022/01/23 00:58:38;;;;;;;16.93;12.10;;;;;;;3.74;96.88;97085.00;5052637;28;20229;-83
2022/01/23 01:01:05;;;;;;;16.10;11.90;;;;;;;3.71;96.99;97082.63;5052458;28;20204;-83
2022/01/23 01:03:31;;;;;;;18.57;11.93;;;;;;;3.70;97.01;97081.00;5037109;28;20217;-83
2022/01/23 01:05:59;;;;;;;17.80;12.23;;;;;;;3.78;96.82;97078.78;5033596;28;20202;-83
2022/01/23 01:08:26;;;;;;;18.20;12.23;;;;;;;3.73;96.31;97069.81;5051388;28;20198;-83
2022/01/23 01:11:05;;;;;;;17.17;11.47;;;;;;;3.70;96.39;97077.63;5042769;28;20783;-83
2022/01/23 01:13:54;;;;;;;17.73;11.90;;;;;;;3.71;96.53;97076.72;5052678;28;20216;-83
2022/01/23 01:16:40;;;;;;;16.50;11.33;;;;;;;3.72;96.29;97084.28;5054988;28;20274;-83
2022/01/23 01:30:19;;;;;;;14.37;10.77;;;;;;;3.87;94.71;97094.38;5056077;28;20279;-83
2022/01/23 01:32:57;;;;;;;15.70;10.87;;;;;;;3.85;94.80;97086.06;5056228;28;20266;-83
2022/01/23 01:35:28;;;;;;;15.17;11.03;;;;;;;3.89;94.53;97083.19;5056294;28;20248;-83
2022/01/23 01:37:55;;;;;;;15.70;11.13;;;;;;;3.91;94.36;97093.28;5056013;28;20264;-83
2022/01/23 01:40:24;;;;;;;13.93;10.57;;;;;;;3.85;94.50;97086.84;5053423;28;20233;-82
2022/01/23 01:42:51;;;;;;;17.50;11.53;;;;;;;3.87;94.85;97087.56;5055474;28;20197;-83
2022/01/23 01:45:22;;;;;;;15.93;11.17;;;;;;;3.87;94.64;97079.91;5056063;28;20205;-83
2022/01/23 01:47:50;;;;;;;14.30;10.90;;;;;;;3.86;94.36;97087.66;5055437;28;20205;-83
2022/01/23 01:50:17;;;;;;;18.80;11.00;;;;;;;3.90;94.23;97081.47;5055257;28;20248;-82
2022/01/23 01:52:44;;;;;;;15.17;11.33;;;;;;;3.93;94.09;97077.00;5055151;28;20212;-83
2022/01/23 01:55:16;;;;;;;16.83;10.77;;;;;;;3.88;94.48;97075.66;5055273;28;20228;-83
2022/01/23 01:57:51;;;;;;;16.17;10.33;;;;;;;3.85;94.15;97070.78;5055517;28;20217;-83
2022/01/23 02:00:37;;;;;;;14.33;11.27;;;;;;;3.90;93.90;97073.81;5055220;28;20237;-83
2022/01/23 02:03:35;;;;;;;14.67;9.93;;;;;;;3.88;94.04;97080.75;5040366;28;20295;-83
2022/01/23 02:08:47;;;;;;;15.57;10.73;;;;;;;3.95;93.28;97077.72;5017281;28;20701;-80
2022/01/23 02:11:18;;;;;;;13.43;10.60;;;;;;;3.95;93.32;97076.91;5036065;28;20640;-83
2022/01/23 02:13:50;;;;;;;18.17;10.63;;;;;;;3.97;93.17;97080.97;5035358;28;20308;-83
2022/01/23 02:16:54;;;;;;;13.97;10.40;;;;;;;3.98;92.94;97079.25;5035964;28;20265;-83
2022/01/23 02:22:39;;;;;;;13.60;10.37;;;;;;;3.98;93.17;97085.16;5003810;28;20209;-83
2022/01/23 02:25:41;;;;;;;16.00;10.83;;;;;;;3.93;93.38;97076.16;5035013;28;20208;-83
2022/01/23 02:52:53;;;;;;;15.53;10.37;;;;;;;3.93;93.55;97078.72;5034181;28;20719;-83
2022/01/23 02:55:25;;;;;;;14.63;10.87;;;;;;;3.97;93.17;97080.97;5034309;28;20640;-83
2022/01/23 02:57:55;;;;;;;14.53;10.97;;;;;;;4.02;92.69;97067.94;5033926;28;20782;-83
2022/01/23 03:00:25;;;;;;;14.57;10.93;;;;;;;3.99;92.64;97073.25;5033859;28;20218;-83
2022/01/23 03:02:54;;;;;;;15.53;10.90;;;;;;;4.01;92.61;97074.78;5034209;28;20198;-83
2022/01/23 03:05:34;;;;;;;14.83;11.20;;;;;;;3.94;92.73;97070.97;5034124;28;20206;-83
2022/01/23 03:08:05;;;;;;;17.20;11.43;;;;;;;3.97;92.81;97067.41;5033962;28;20194;-83
2022/01/23 03:10:38;;;;;;;15.73;10.87;;;;;;;3.99;92.87;97068.97;5033182;28;20253;-83
2022/01/23 03:16:11;;;;;;;15.07;10.60;;;;;;;3.96;93.05;97084.44;5033637;28;20209;-83
2022/01/23 03:24:20;;;;;;;16.00;10.83;;;;;;;3.98;92.62;97085.16;5032334;28;20237;-83
2022/01/23 03:26:55;;;;;;;15.97;11.17;;;;;;;3.98;92.67;97081.78;5033987;28;20198;-83
2022/01/23 03:29:23;;;;;;;13.90;10.37;;;;;;;3.95;92.98;97085.34;5028070;28;20345;-83
2022/01/23 03:32:13;;;;;;;14.13;10.53;;;;;;;3.97;92.91;97080.16;5014410;28;20202;-83
2022/01/23 03:34:40;;;;;;;15.77;10.87;;;;;;;3.97;92.75;97082.72;5024785;28;20219;-81
2022/01/23 03:37:06;;;;;;;16.10;10.63;;;;;;;3.95;93.05;97071.78;5013731;28;20234;-81
2022/01/23 03:39:33;;;;;;;13.97;11.13;;;;;;;3.91;93.13;97072.91;5031929;28;20191;-81
2022/01/23 03:42:00;;;;;;;14.20;10.60;;;;;;;3.95;92.84;97067.50;5032426;28;21052;-81
2022/01/23 03:44:27;;;;;;;14.30;10.70;;;;;;;3.94;92.63;97065.88;5014715;28;20593;-82
2022/01/23 03:47:14;;;;;;;13.40;10.77;;;;;;;3.94;93.01;97077.81;5024372;28;20340;-81
2022/01/23 03:49:39;;;;;;;14.93;10.93;;;;;;;3.99;92.65;97073.25;5033662;28;20213;-81
2022/01/23 03:52:09;;;;;;;13.80;9.83;;;;;;;3.91;92.37;97071.16;5035096;28;20233;-81
2022/01/23 03:54:36;;;;;;;13.27;9.97;;;;;;;3.92;92.46;97069.44;5052565;28;20232;-82
2022/01/23 03:57:05;;;;;;;13.83;10.73;;;;;;;3.97;92.45;97080.97;5052479;28;20217;-81
2022/01/23 03:59:33;;;;;;;12.93;10.20;;;;;;;3.97;91.75;97090.34;5052467;28;20208;-81
2022/01/23 04:02:00;;;;;;;11.33;8.93;;;;;;;4.00;91.54;97082.50;5050067;28;20255;-81
2022/01/23 04:04:39;;;;;;;11.73;8.93;;;;;;;4.06;91.60;97084.66;5033626;28;20228;-81
2022/01/23 04:07:12;;;;;;;13.60;9.67;;;;;;;4.03;90.85;97077.22;5052610;28;20221;-81
2022/01/23 04:09:40;;;;;;;11.83;9.13;;;;;;;4.06;91.03;97072.72;5052192;28;20227;-81
2022/01/23 04:12:12;;;;;;;11.43;9.20;;;;;;;4.09;90.87;97094.66;5052639;28;20229;-81
2022/01/23 04:14:47;;;;;;;11.80;8.83;;;;;;;4.11;90.49;97103.00;5052676;28;20221;-81
2022/01/23 04:20:27;;;;;;;12.63;8.60;;;;;;;4.09;89.83;97097.19;5052048;28;20208;-81
2022/01/23 04:33:54;;;;;;;9.47;7.90;;;;;;;4.06;90.14;97077.81;5046605;28;20251;-81
2022/01/23 05:01:19;;;;;;;8.63;6.67;;;;;;;4.10;89.46;97091.19;5017520;28;20202;-83
2022/01/23 05:04:10;;;;;;;10.17;7.43;;;;;;;4.16;89.14;97104.34;5035809;28;20222;-83
2022/01/23 05:06:42;;;;;;;9.60;7.47;;;;;;;4.15;89.31;97109.56;5046255;28;20193;-83
2022/01/23 05:09:09;;;;;;;8.47;6.57;;;;;;;4.17;89.25;97105.19;5033117;28;20201;-83
2022/01/23 05:11:37;;;;;;;8.20;6.97;;;;;;;4.20;88.90;97092.25;5033121;28;20202;-84
2022/01/23 05:14:04;;;;;;;8.50;6.80;;;;;;;4.11;88.44;97091.09;5033847;28;20213;-83
2022/01/23 05:16:33;;;;;;;7.67;6.77;;;;;;;4.11;88.71;97086.00;5051802;28;20233;-83
2022/01/23 05:18:59;;;;;;;7.83;7.00;;;;;;;4.11;88.40;97092.81;5053126;28;20197;-83
2022/01/23 05:21:51;;;;;;;8.37;7.13;;;;;;;4.05;88.37;97075.38;5053429;28;20200;-83
2022/01/23 05:24:22;;;;;;;9.17;7.10;;;;;;;4.06;88.06;97077.00;5052919;28;20240;-83
2022/01/23 05:26:49;;;;;;;9.40;7.60;;;;;;;4.10;87.98;97073.34;5051714;28;20220;-83
2022/01/23 05:29:16;;;;;;;8.83;6.57;;;;;;;4.10;88.18;97073.34;5052602;28;20210;-84
2022/01/23 05:31:44;;;;;;;8.43;6.67;;;;;;;4.12;87.87;97061.31;5052120;28;20198;-83
2022/01/23 05:34:11;;;;;;;8.27;6.87;;;;;;;4.11;87.98;97057.13;5052336;28;20236;-83
2022/01/23 05:36:37;;;;;;;10.47;6.90;;;;;;;4.08;87.99;97064.97;5051432;28;20229;-83
2022/01/23 05:39:04;;;;;;;7.70;6.50;;;;;;;4.05;87.74;97057.53;5052723;28;20204;-83
2022/01/23 05:41:31;;;;;;;10.07;6.97;;;;;;;4.06;88.23;97066.81;5052216;28;20198;-83
2022/01/23 05:43:57;;;;;;;7.40;6.70;;;;;;;4.11;88.43;97074.97;5051939;28;20264;-83
2022/01/23 05:46:24;;;;;;;8.40;6.80;;;;;;;4.08;88.43;97090.47;5051407;28;20274;-83
2022/01/23 05:48:52;;;;;;;8.93;6.90;;;;;;;4.13;88.53;97096.91;5052367;28;20209;-83
2022/01/23 05:51:18;;;;;;;8.47;6.80;;;;;;;4.09;88.74;97092.09;5051752;28;20210;-83
2022/01/23 05:53:45;;;;;;;7.67;6.40;;;;;;;4.13;88.75;97102.00;5050756;28;20723;-84
2022/01/23 05:56:11;;;;;;;8.77;7.03;;;;;;;4.15;88.78;97107.00;5023311;28;20234;-83
2022/01/23 05:58:38;;;;;;;7.97;6.90;;;;;;;4.13;87.98;97101.19;5034696;28;20245;-83
2022/01/23 06:01:05;;;;;;;8.03;6.90;;;;;;;4.16;88.12;97112.00;5032252;28;20198;-83
2022/01/23 06:03:31;;;;;;;8.27;7.10;;;;;;;4.18;87.92;97106.81;5035389;28;20222;-83
2022/01/23 06:05:59;;;;;;;10.03;6.93;;;;;;;4.16;88.03;97096.72;5045926;28;20225;-83
2022/01/23 06:08:25;;;;;;;8.87;7.33;;;;;;;4.19;87.67;97100.81;5055072;28;20193;-84
2022/01/23 06:10:56;;;;;;;8.30;7.03;;;;;;;4.21;87.96;97100.69;5055382;28;20197;-82
2022/01/23 06:13:23;;;;;;;9.63;7.27;;;;;;;4.24;87.79;97103.84;5055434;28;20572;-83
2022/01/23 06:15:49;;;;;;;7.90;6.57;;;;;;;4.24;87.67;97105.56;5054932;28;20237;-83
2022/01/23 06:18:15;;;;;;;8.63;7.20;;;;;;;4.21;87.55;97105.81;5050582;28;20220;-84
2022/01/23 06:20:42;;;;;;;8.80;7.17;;;;;;;4.18;88.02;97119.56;5054963;28;20193;-83
2022/01/23 06:23:10;;;;;;;7.97;7.13;;;;;;;4.18;88.39;97122.09;5055532;28;20595;-83
2022/01/23 06:25:37;;;;;;;9.27;7.37;;;;;;;4.20;88.52;97130.47;5054507;28;20194;-83
2022/01/23 06:28:05;;;;;;;10.97;8.10;;;;;;;4.15;88.67;97125.66;5054495;28;20580;-83
2022/01/23 06:30:32;;;;;;;8.43;7.50;;;;;;;4.19;88.16;97123.75;5054433;28;20190;-83
2022/01/23 06:32:59;;;;;;;9.43;7.47;;;;;;;4.20;88.29;97117.72;5054293;28;20201;-83
2022/01/23 06:35:26;;;;;;;11.07;8.50;;;;;;;4.21;88.52;97127.00;5054279;28;20205;-84
2022/01/23 06:37:52;;;;;;;9.90;7.93;;;;;;;4.21;88.22;97121.91;5051701;28;20833;-84
2022/01/23 06:40:20;;;;;;;9.03;7.30;;;;;;;4.26;87.90;97134.34;5054296;28;20201;-83
2022/01/23 06:42:47;;;;;;;11.03;8.03;;;;;;;4.26;87.84;97134.34;5015856;28;20211;-83
2022/01/23 06:45:13;;;;;;;9.53;8.13;;;;;;;4.24;87.59;97129.34;5015294;28;20202;-81
2022/01/23 06:47:40;;;;;;;11.93;8.47;;;;;;;4.26;87.69;97130.06;5053344;28;20251;-81
2022/01/23 06:50:07;;;;;;;11.60;7.93;;;;;;;4.29;87.75;97134.16;5054570;28;20695;-83
2022/01/23 06:52:34;;;;;;;11.20;8.43;;;;;;;4.31;87.45;97125.47;5051684;28;20194;-83
2022/01/23 06:55:00;;;;;;;11.43;8.57;;;;;;;4.31;87.30;97125.47;5044449;28;20629;-83
2022/01/23 06:57:28;;;;;;;9.93;8.10;;;;;;;4.32;87.18;97128.84;5033979;28;20250;-83
2022/01/23 06:59:55;;;;;;;9.57;8.10;;;;;;;4.31;87.35;97129.75;5033663;28;20202;-83
2022/01/23 07:02:21;;;;;;;11.03;9.40;;;;;;;4.26;87.65;97131.78;5033342;28;20212;-81
2022/01/23 07:04:48;;;;;;;11.43;8.27;;;;;;;4.23;87.43;97127.72;5033498;28;20210;-81
2022/01/23 07:07:14;;;;;;;12.53;8.60;;;;;;;4.22;87.62;97130.38;5033449;28;20253;-83
2022/01/23 07:09:41;;;;;;;11.13;9.13;;;;;;;4.24;87.79;97123.41;5033838;28;20198;-83
2022/01/23 07:12:08;;;;;;;10.07;8.60;;;;;;;4.26;87.88;97135.16;5033470;28;20202;-83
2022/01/23 07:14:36;;;;;;;10.93;9.00;;;;;;;4.25;87.65;97130.97;5032768;28;20217;-83
2022/01/23 07:17:03;;;;;;;9.87;8.43;;;;;;;4.27;87.33;97125.78;5032591;28;20198;-83
2022/01/23 07:19:29;;;;;;;10.37;8.80;;;;;;;4.26;87.48;97127.50;5033880;28;20213;-83
2022/01/23 07:21:56;;;;;;;11.37;9.07;;;;;;;4.14;87.54;97138.50;5030650;28;20289;-83
2022/01/23 07:24:23;;;;;;;11.27;9.43;;;;;;;4.14;88.10;97149.53;5032415;28;20248;-83
2022/01/23 07:26:49;;;;;;;11.03;9.00;;;;;;;4.19;87.93;97156.06;5032515;28;20636;-83
2022/01/23 07:29:17;;;;;;;12.40;10.13;;;;;;;4.21;88.08;97149.94;5032914;28;20639;-83
2022/01/23 07:31:57;;;;;;;11.00;9.03;;;;;;;4.22;87.51;97159.25;5033797;28;20236;-84
2022/01/23 07:34:25;;;;;;;10.73;9.00;;;;;;;4.21;87.16;97165.25;5034196;28;20230;-83
2022/01/23 07:36:51;;;;;;;10.70;9.53;;;;;;;4.21;87.54;97187.38;5034035;28;20202;-83
2022/01/23 07:39:18;;;;;;;12.30;9.43;;;;;;;4.23;87.58;97183.81;5033771;28;20237;-83
2022/01/23 07:41:45;;;;;;;12.17;10.00;;;;;;;4.25;87.81;97181.13;5034079;28;20195;-83
2022/01/23 07:44:12;;;;;;;11.90;9.27;;;;;;;4.26;87.70;97177.69;5034231;28;20225;-83
2022/01/23 07:46:38;;;;;;;11.40;9.77;;;;;;;4.30;87.86;97181.66;5033815;28;20252;-83
2022/01/23 07:49:06;;;;;;;11.50;9.60;;;;;;;4.33;87.31;97186.56;5032360;28;20477;-83
2022/01/23 07:51:32;;;;;;;11.53;9.27;;;;;;;4.35;86.99;97187.31;5034112;28;20206;-83
2022/01/23 07:53:59;;;;;;;10.97;9.20;;;;;;;4.32;86.88;97195.97;5034010;28;20238;-83
2022/01/23 07:56:25;;;;;;;10.03;8.60;;;;;;;4.34;87.31;97201.78;5033988;28;20386;-83
2022/01/23 07:58:52;;;;;;;11.63;9.77;;;;;;;4.33;87.47;97209.53;5032909;28;20293;-83
2022/01/23 08:01:19;;;;;;;10.27;8.93;;;;;;;4.35;87.51;97210.25;5034459;28;20201;-83
2022/01/23 08:03:45;;;;;;;11.20;9.23;;;;;;;4.38;87.41;97215.16;5033827;28;20724;-83
2022/01/23 08:06:13;;;;;;;10.43;8.90;;;;;;;4.36;87.08;97216.97;5035515;28;20846;-83
2022/01/23 08:08:40;;;;;;;13.17;9.07;;;;;;;4.32;87.61;97218.09;5032654;28;20309;-83
2022/01/23 08:11:07;;;;;;;10.07;8.53;;;;;;;4.35;87.51;97218.72;5015810;28;20195;-84
2022/01/23 08:13:33;;;;;;;11.10;9.43;;;;;;;4.35;87.78;97218.72;5025717;28;20237;-83
2022/01/23 08:16:00;;;;;;;13.17;9.70;;;;;;;4.38;87.55;97223.63;5034692;28;20213;-83
2022/01/23 08:18:27;;;;;;;11.10;9.60;;;;;;;4.39;87.27;97220.16;5033875;28;20233;-83
2022/01/23 08:20:53;;;;;;;12.13;10.07;;;;;;;4.40;87.71;97229.44;5033937;28;20214;-83
2022/01/23 08:23:21;;;;;;;12.13;9.73;;;;;;;4.43;87.79;97234.31;5031766;28;20218;-83
2022/01/23 08:25:48;;;;;;;11.73;9.97;;;;;;;4.40;87.76;97234.56;5015949;28;20241;-83
2022/01/23 08:28:14;;;;;;;12.83;9.93;;;;;;;4.40;88.03;97228.63;5018489;28;20203;-83
2022/01/23 08:30:41;;;;;;;11.67;9.60;;;;;;;4.39;87.83;97242.28;5033267;28;20275;-83
2022/01/23 08:33:08;;;;;;;12.70;10.67;;;;;;;4.41;87.86;97243.84;5033579;28;20564;-83
2022/01/23 08:35:34;;;;;;;11.83;9.67;;;;;;;4.38;87.55;97254.22;5033418;28;20201;-84
2022/01/23 08:38:01;;;;;;;12.63;10.47;;;;;;;4.37;88.07;97246.66;5032385;28;20697;-83
2022/01/23 08:43:09;;;;;;;10.77;9.67;;;;;;;4.43;87.84;97243.72;5029686;28;20256;-83
2022/01/23 08:45:36;;;;;;;14.20;11.00;;;;;;;4.47;87.56;97243.44;5033184;28;20201;-83
2022/01/23 08:48:02;;;;;;;12.33;10.43;;;;;;;4.45;87.37;97240.16;5032516;28;20198;-83
2022/01/23 08:50:29;;;;;;;12.87;10.37;;;;;;;4.43;86.57;97239.44;5032866;28;20736;-83
2022/01/23 08:52:55;;;;;;;12.63;10.70;;;;;;;4.43;86.67;97247.06;5032707;28;20229;-83
2022/01/23 08:55:22;;;;;;;14.30;11.00;;;;;;;4.47;86.60;97232.41;5032779;28;20213;-83
2022/01/23 08:57:49;;;;;;;12.57;10.23;;;;;;;4.51;86.59;97228.75;5033676;28;20233;-83
2022/01/23 09:00:18;;;;;;;11.87;10.57;;;;;;;4.53;86.21;97215.91;5034175;28;20198;-83
2022/01/23 09:02:45;;;;;;;12.77;10.83;;;;;;;4.49;86.02;97220.38;5032976;28;20252;-83
2022/01/23 09:05:11;;;;;;;13.30;10.20;;;;;;;4.48;86.48;97216.19;5033814;28;20713;-83
2022/01/23 09:07:38;;;;;;;13.40;10.47;;;;;;;4.50;86.67;97216.91;5034208;28;20677;-84
2022/01/23 09:10:05;;;;;;;13.83;11.07;;;;;;;4.51;86.44;97210.91;5033252;28;20327;-83
2022/01/23 09:12:44;;;;;;;14.53;11.27;;;;;;;4.47;86.71;97220.47;5032268;28;20234;-83
2022/01/23 09:15:12;;;;;;;13.37;11.03;;;;;;;4.50;86.18;97219.47;5033891;28;20225;-83
2022/01/23 09:17:39;;;;;;;14.80;11.80;;;;;;;4.53;86.27;97215.91;5033207;28;20202;-84
2022/01/23 09:20:06;;;;;;;12.90;10.83;;;;;;;4.53;86.15;97221.81;5033536;28;20284;-84
2022/01/23 09:22:32;;;;;;;13.27;11.23;;;;;;;4.57;86.16;97227.53;5033539;28;20329;-84
2022/01/23 09:25:01;;;;;;;13.77;11.27;;;;;;;4.60;86.47;97233.28;5033843;28;20226;-83
2022/01/23 09:27:28;;;;;;;60.17;41.33;;;;;;;4.60;85.89;97240.94;5034019;28;20202;-83
2022/01/23 09:29:55;;;;;;;35.43;27.53;;;;;;;4.63;86.22;97233.03;5033512;28;20209;-83
2022/01/23 09:32:25;;;;;;;27.50;21.27;;;;;;;4.66;86.62;97226.94;5033428;28;20225;-84
2022/01/23 09:34:52;;;;;;;15.60;13.30;;;;;;;4.68;85.74;97225.94;5033039;28;20218;-84
2022/01/23 09:37:20;;;;;;;14.10;11.07;;;;;;;4.72;85.02;97213.78;5034193;28;20704;-84
2022/01/23 09:39:49;;;;;;;14.10;11.53;;;;;;;4.73;85.26;97213.69;5034560;28;20237;-83
2022/01/23 09:42:20;;;;;;;14.03;11.93;;;;;;;4.75;85.78;97206.75;5034749;28;20254;-83
2022/01/23 09:44:50;;;;;;;15.73;12.80;;;;;;;4.79;86.01;97202.28;5035284;28;20229;-83
2022/01/23 09:47:20;;;;;;;15.70;12.47;;;;;;;4.89;85.13;97213.50;5032628;28;20209;-82
2022/01/23 09:49:49;;;;;;;13.50;11.67;;;;;;;4.91;85.66;97210.84;5035808;28;20222;-83
2022/01/23 09:52:17;;;;;;;14.87;11.63;;;;;;;4.92;84.96;97215.84;5037569;28;20608;-84
2022/01/23 09:54:52;;;;;;;14.73;11.43;;;;;;;4.84;85.94;97225.72;5035021;28;20229;-83
2022/01/23 09:57:23;;;;;;;14.93;12.07;;;;;;;4.88;85.70;97214.41;5036890;28;20201;-83
2022/01/23 09:59:51;;;;;;;14.43;11.90;;;;;;;4.75;86.98;97219.50;5037336;28;21010;-83
2022/01/23 10:02:17;;;;;;;15.27;12.80;;;;;;;4.73;86.71;97217.97;5038143;28;20664;-84
2022/01/23 10:04:44;;;;;;;14.87;12.20;;;;;;;4.75;86.51;97214.41;5034754;28;20311;-83
2022/01/23 10:07:13;;;;;;;15.53;13.07;;;;;;;4.81;87.69;97213.19;5039004;28;20209;-84
2022/01/23 10:09:39;;;;;;;13.10;11.50;;;;;;;4.88;86.93;97224.63;5036965;28;20852;-83
2022/01/23 10:12:08;;;;;;;12.77;11.40;;;;;;;4.88;85.88;97213.59;5036589;28;20198;-83
2022/01/23 10:14:36;;;;;;;13.80;11.93;;;;;;;4.85;85.12;97206.94;5036338;28;20225;-84
2022/01/23 10:17:05;;;;;;;12.90;11.50;;;;;;;4.94;86.04;97206.34;5036389;28;20234;-84
2022/01/23 10:19:33;;;;;;;15.27;11.50;;;;;;;4.99;85.21;97203.50;5015241;28;20222;-83
2022/01/23 10:22:02;;;;;;;19.20;15.17;;;;;;;5.02;85.18;97213.50;5025082;28;20205;-83
2022/01/23 10:24:30;;;;;;;35.30;26.43;;;;;;;5.06;84.32;97204.72;5035090;28;20234;-84
2022/01/23 10:26:58;;;;;;;17.53;14.33;;;;;;;5.14;84.03;97205.84;5035145;28;20208;-84
2022/01/23 10:29:29;;;;;;;12.37;10.67;;;;;;;5.20;83.08;97197.75;5035451;28;20820;-83
2022/01/23 10:32:07;;;;;;;14.20;11.50;;;;;;;5.21;82.90;97211.34;5035933;28;20194;-84
2022/01/23 10:34:45;;;;;;;12.47;10.43;;;;;;;5.25;82.91;97206.84;5035409;28;20767;-84
2022/01/23 10:37:13;;;;;;;12.33;10.73;;;;;;;5.24;82.48;97200.94;5035682;28;20209;-84
2022/01/23 10:39:44;;;;;;;12.27;10.17;;;;;;;5.25;82.43;97196.63;5035596;28;20580;-83
2022/01/23 10:42:48;;;;;;;12.73;10.83;;;;;;;5.21;83.21;97191.72;5035911;28;20202;-84
2022/01/23 10:48:39;;;;;;;12.93;11.27;;;;;;;5.22;81.60;97195.09;5036065;28;20205;-84
2022/01/23 10:51:31;;;;;;;14.03;11.67;;;;;;;5.24;82.84;97197.56;5035226;28;20198;-83
2022/01/23 10:54:03;;;;;;;12.47;11.17;;;;;;;5.31;83.04;97197.03;5033738;28;20229;-84
2022/01/23 10:56:32;;;;;;;13.77;11.17;;;;;;;5.35;82.88;97203.59;5034513;28;20229;-84
2022/01/23 10:59:02;;;;;;;12.57;11.27;;;;;;;5.38;82.03;97200.00;5035605;28;20248;-84
2022/01/23 11:01:29;;;;;;;12.13;10.83;;;;;;;5.34;81.54;97204.50;5035542;28;20201;-83
2022/01/23 11:04:13;;;;;;;13.87;11.13;;;;;;;5.31;82.51;97198.78;5034049;28;20225;-83
2022/01/23 11:06:53;;;;;;;13.87;11.73;;;;;;;5.31;82.09;97201.34;5017242;28;20219;-83
2022/01/23 11:09:19;;;;;;;12.97;11.57;;;;;;;5.30;81.96;97197.97;5025595;28;20201;-82
2022/01/23 11:11:49;;;;;;;13.80;11.90;;;;;;;5.33;81.85;97197.75;5035814;28;20198;-83
2022/01/23 11:19:47;;;;;;;12.60;11.30;;;;;;;5.57;80.39;97184.22;5034823;28;20328;-83
2022/01/23 11:22:18;;;;;;;12.70;11.40;;;;;;;5.59;80.60;97183.19;5035338;28;20205;-85
2022/01/23 11:24:47;;;;;;;12.33;11.03;;;;;;;5.55;80.46;97182.59;5033590;28;20244;-82
2022/01/23 11:27:17;;;;;;;11.70;10.50;;;;;;;5.60;80.13;97184.81;5034158;28;20206;-83
2022/01/23 11:29:55;;;;;;;13.60;11.07;;;;;;;5.64;79.70;97181.13;5033554;28;20191;-82
2022/01/23 11:32:24;;;;;;;11.80;10.47;;;;;;;5.65;79.46;97179.38;5033420;28;20225;-83
2022/01/23 11:34:54;;;;;;;12.00;10.77;;;;;;;5.75;79.82;97182.97;5033375;28;20905;-83
2022/01/23 11:37:20;;;;;;;11.23;10.03;;;;;;;5.83;79.34;97175.56;5034415;28;20194;-83
2022/01/23 11:39:52;;;;;;;11.77;9.77;;;;;;;5.85;78.40;97182.19;5033053;28;20225;-82
2022/01/23 11:50:47;;;;;;;12.17;10.10;;;;;;;5.89;77.65;97170.84;5017209;28;20208;-83
2022/01/23 11:53:48;;;;;;;14.13;10.47;;;;;;;5.84;77.76;97170.34;5034435;28;20955;-82
2022/01/23 11:56:37;;;;;;;11.20;10.00;;;;;;;5.92;77.01;97171.56;5032010;28;20232;-83
2022/01/23 11:59:36;;;;;;;11.63;10.43;;;;;;;6.00;77.46;97164.16;5032854;28;20222;-83
2022/01/23 12:02:25;;;;;;;10.70;7.87;;;;;;;6.39;96.94;97165.59;5019504;28;20206;-85
2022/01/23 12:05:29;;;;;;;12.20;8.40;;;;;;;7.05;90.69;97154.66;5034477;28;20302;-83
2022/01/23 12:08:19;;;;;;;11.53;10.33;;;;;;;7.07;74.53;97154.56;5036930;28;20280;-84
2022/01/23 12:11:35;;;;;;;12.60;11.00;;;;;;;6.94;74.31;97149.53;5035746;28;20253;-83
2022/01/23 12:17:21;;;;;;;13.40;11.37;;;;;;;6.74;74.32;97148.44;5034000;28;20254;-82
2022/01/23 12:19:54;;;;;;;12.50;11.20;;;;;;;6.57;74.67;97144.59;5037385;28;20222;-82
2022/01/23 12:22:36;;;;;;;12.20;10.90;;;;;;;6.52;75.05;97141.56;5038150;28;20685;-82
2022/01/23 12:25:13;;;;;;;14.70;11.33;;;;;;;6.49;74.70;97143.53;5032299;28;20225;-82
2022/01/23 12:27:40;;;;;;;13.50;11.70;;;;;;;6.50;74.99;97138.31;5037030;28;20198;-83
2022/01/23 12:30:33;;;;;;;11.37;10.17;;;;;;;6.33;74.19;97136.19;5038472;28;20209;-82
2022/01/23 12:33:31;;;;;;;12.17;10.87;;;;;;;6.28;73.74;97142.53;5017021;28;20213;-82
2022/01/23 12:36:02;;;;;;;12.47;11.17;;;;;;;6.20;75.46;97143.09;5022871;28;20232;-82
2022/01/23 12:38:37;;;;;;;12.13;10.50;;;;;;;6.15;75.58;97143.44;5036376;28;20226;-82
2022/01/23 12:41:23;;;;;;;11.80;10.23;;;;;;;6.18;74.56;97138.09;5036409;28;20206;-83
2022/01/23 12:43:51;;;;;;;12.07;10.50;;;;;;;6.19;75.59;97138.91;5037119;28;20214;-83
2022/01/23 12:46:31;;;;;;;12.57;10.80;;;;;;;6.10;74.89;97145.50;5037625;28;20226;-82
2022/01/23 12:49:00;;;;;;;13.43;11.13;;;;;;;5.94;75.79;97151.84;5027353;28;20669;-83
2022/01/23 12:51:32;;;;;;;12.73;11.20;;;;;;;5.90;75.56;97143.56;5037528;28;20225;-83
2022/01/23 12:54:15;;;;;;;11.47;10.27;;;;;;;6.00;75.99;97148.81;5039923;28;20222;-83
2022/01/23 12:56:44;;;;;;;13.90;11.60;;;;;;;6.02;76.46;97152.91;5037941;28;20225;-83
2022/01/23 12:59:15;;;;;;;14.33;12.60;;;;;;;6.40;76.60;97150.13;5036670;28;20703;-83
2022/01/23 13:01:47;;;;;;;14.73;12.27;;;;;;;6.92;76.23;97143.72;5038348;28;20190;-83
2022/01/23 13:04:15;;;;;;;15.63;13.80;;;;;;;7.25;74.21;97142.91;5036991;28;20274;-82
2022/01/23 13:06:49;;;;;;;14.83;12.67;;;;;;;7.59;71.97;97138.53;5035290;28;20202;-82
2022/01/23 13:09:22;;;;;;;13.10;9.47;;;;;;;7.83;79.92;97146.88;5034544;28;20233;-83
2022/01/23 13:12:04;;;;;;;11.67;9.50;;;;;;;8.06;80.83;97150.19;5038624;28;20673;-84
2022/01/23 13:14:45;;;;;;;14.50;11.33;;;;;;;7.65;78.13;97147.53;5039662;28;20256;-84
2022/01/23 13:17:38;;;;;;;12.77;10.47;;;;;;;7.70;78.89;97142.84;5040167;28;20202;-83
2022/01/23 13:31:01;;;;;;;10.80;9.70;;;;;;;7.07;69.62;97129.75;5025680;28;20221;-83
2022/01/23 13:33:29;;;;;;;11.27;9.60;;;;;;;6.94;70.72;97127.28;5037232;28;20607;-83
2022/01/23 13:35:55;;;;;;;12.43;9.67;;;;;;;6.88;70.68;97129.53;5038119;28;20210;-83
2022/01/23 13:38:23;;;;;;;10.67;9.43;;;;;;;6.65;71.29;97127.84;5027835;28;20194;-84
2022/01/23 13:41:05;;;;;;;10.63;9.53;;;;;;;6.54;72.08;97132.00;5053295;28;20284;-83
2022/01/23 13:51:58;;;;;;;9.50;8.17;;;;;;;6.35;72.75;97118.94;5038771;28;20237;-83
2022/01/23 13:59:58;;;;;;;8.40;7.50;;;;;;;6.32;73.00;97114.09;5054541;28;20402;-82
2022/01/23 14:02:27;;;;;;;8.70;7.80;;;;;;;6.30;73.01;97117.66;5051600;28;20218;-84
2022/01/23 14:05:04;;;;;;;9.10;8.17;;;;;;;6.23;73.41;97115.56;5037186;28;20230;-83
2022/01/23 14:07:31;;;;;;;9.20;8.23;;;;;;;6.24;73.67;97117.19;5038053;28;20237;-83
2022/01/23 14:10:00;;;;;;;8.60;7.60;;;;;;;6.24;74.20;97121.50;5038347;28;20202;-83
2022/01/23 14:12:27;;;;;;;8.90;8.00;;;;;;;6.22;74.48;97119.03;5038256;28;20246;-83